Time;durP1;ratioP1;P1;durP2;ratioP2;P2;SDS_P1;SDS_P2;PMS_P1;PMS_P2;Temp;Humidity;BMP_temperature;BMP_pressure;BME280_temperature;BME280_humidity;BME280_pressure;Samples;Min_cycle;Max_cycle;Signal;HPM_P1;HPM_P2
2022/06/20 00:00:42;;;;;;;11.00;7.10;;;13.70;99.90;;;;;;5153613;28;20440;-44
2022/06/20 00:03:37;;;;;;;15.87;6.63;;;13.60;99.90;;;;;;5154759;28;20499;-48
2022/06/20 00:06:12;;;;;;;12.20;6.07;;;13.60;99.90;;;;;;5146828;28;20562;-45
2022/06/20 00:08:43;;;;;;;10.77;5.40;;;13.50;99.90;;;;;;5151813;28;20424;-45
2022/06/20 00:11:16;;;;;;;10.80;5.60;;;13.50;99.90;;;;;;5149336;28;20825;-45
2022/06/20 00:13:51;;;;;;;20.57;6.77;;;13.40;99.90;;;;;;5144645;28;20213;-44
2022/06/20 00:16:23;;;;;;;16.30;7.23;;;13.40;99.90;;;;;;5134813;28;20524;-44
2022/06/20 00:18:53;;;;;;;15.17;7.80;;;13.50;99.90;;;;;;5147471;28;20441;-46
2022/06/20 00:21:24;;;;;;;21.43;6.80;;;13.50;99.90;;;;;;5151468;28;20913;-45
2022/06/20 00:23:55;;;;;;;10.23;5.50;;;13.50;99.90;;;;;;5149358;28;20213;-45
2022/06/20 00:26:25;;;;;;;12.23;6.53;;;13.50;99.90;;;;;;5199571;23;20227;-48
2022/06/20 00:28:57;;;;;;;10.97;5.90;;;13.40;99.90;;;;;;5201092;28;20234;-49
2022/06/20 00:31:27;;;;;;;19.50;6.97;;;13.40;99.90;;;;;;5207027;28;20530;-49
2022/06/20 00:33:58;;;;;;;10.90;5.70;;;13.50;99.90;;;;;;5204663;28;20507;-46
2022/06/20 00:36:29;;;;;;;12.30;6.13;;;13.50;99.90;;;;;;5186243;28;20208;-49
2022/06/20 00:39:00;;;;;;;16.07;5.77;;;13.60;99.90;;;;;;5188249;28;20193;-47
2022/06/20 00:41:33;;;;;;;7.67;5.63;;;13.70;99.90;;;;;;5188142;28;20216;-46
2022/06/20 00:44:04;;;;;;;8.13;5.77;;;13.70;99.90;;;;;;5202923;28;20440;-47
2022/06/20 00:46:49;;;;;;;10.17;5.47;;;13.60;99.90;;;;;;5188124;28;20481;-47
2022/06/20 00:49:28;;;;;;;8.70;5.03;;;13.60;99.90;;;;;;5175679;28;20184;-47
2022/06/20 00:52:03;;;;;;;18.70;7.80;;;13.60;99.90;;;;;;5185022;28;20497;-48
2022/06/20 00:54:43;;;;;;;12.63;7.23;;;13.50;99.90;;;;;;5200022;28;20433;-47
2022/06/20 00:57:17;;;;;;;18.27;6.97;;;13.60;99.90;;;;;;5188351;28;20451;-48
2022/06/20 01:00:07;;;;;;;11.60;5.80;;;13.60;99.90;;;;;;5186976;28;20828;-47
2022/06/20 01:02:43;;;;;;;12.80;5.73;;;13.60;99.90;;;;;;5187282;28;20526;-47
2022/06/20 01:05:27;;;;;;;12.40;7.30;;;13.60;99.90;;;;;;5179729;28;20463;-47
2022/06/20 01:08:09;;;;;;;18.33;7.60;;;13.50;99.90;;;;;;5180240;28;20441;-48
2022/06/20 01:10:54;;;;;;;18.93;7.50;;;13.40;99.90;;;;;;5185683;28;20462;-47
2022/06/20 01:13:26;;;;;;;28.00;10.27;;;13.40;99.90;;;;;;5185844;28;20950;-47
2022/06/20 01:16:13;;;;;;;27.43;10.20;;;13.40;99.90;;;;;;5183057;28;20574;-47
2022/06/20 01:18:46;;;;;;;33.87;10.57;;;13.20;99.90;;;;;;5180556;28;20454;-48
2022/06/20 01:21:20;;;;;;;29.53;11.40;;;13.20;99.90;;;;;;5188091;28;20431;-46
2022/06/20 01:24:27;;;;;;;30.50;10.10;;;13.30;99.90;;;;;;5202488;28;20442;-49
2022/06/20 01:27:09;;;;;;;30.47;10.60;;;13.40;99.90;;;;;;5189268;28;20477;-48
2022/06/20 01:29:40;;;;;;;7.73;6.83;;;13.50;99.90;;;;;;5177592;28;20580;-47
2022/06/20 01:32:11;;;;;;;23.37;8.87;;;13.50;99.90;;;;;;5185505;28;20821;-48
2022/06/20 01:34:42;;;;;;;12.80;7.03;;;13.60;99.90;;;;;;5187713;28;20569;-47
2022/06/20 01:37:23;;;;;;;14.37;6.00;;;13.70;99.90;;;;;;5187936;28;20583;-47
2022/06/20 01:40:15;;;;;;;14.73;6.27;;;13.80;99.90;;;;;;5193764;28;20188;-47
2022/06/20 01:42:45;;;;;;;18.77;7.33;;;13.70;99.90;;;;;;5181883;28;20443;-49
2022/06/20 01:48:11;;;;;;;20.33;7.87;;;13.70;99.90;;;;;;5188566;28;20249;-49
2022/06/20 01:50:45;;;;;;;16.50;7.90;;;13.70;99.90;;;;;;5189543;28;20446;-50
2022/06/20 01:53:19;;;;;;;16.17;7.23;;;13.60;99.90;;;;;;5179287;28;20449;-48
2022/06/20 01:55:52;;;;;;;16.73;7.60;;;13.50;99.90;;;;;;5172375;28;20514;-48
2022/06/20 01:58:47;;;;;;;18.80;8.30;;;13.50;99.90;;;;;;5188609;28;20439;-48
2022/06/20 02:01:18;;;;;;;12.60;6.87;;;13.50;99.90;;;;;;5185500;28;20959;-48
2022/06/20 02:03:48;;;;;;;23.03;7.80;;;13.60;99.90;;;;;;5190810;28;20589;-48
2022/06/20 02:06:19;;;;;;;16.20;6.23;;;13.50;99.90;;;;;;5189315;28;20227;-47
2022/06/20 02:08:53;;;;;;;16.67;6.00;;;13.50;99.90;;;;;;5184891;28;20188;-47
2022/06/20 02:11:40;;;;;;;15.37;6.13;;;13.50;99.90;;;;;;5179618;28;20195;-48
2022/06/20 02:14:16;;;;;;;21.87;6.83;;;13.50;99.90;;;;;;5186650;28;20445;-49
2022/06/20 02:16:56;;;;;;;8.30;5.90;;;13.40;99.90;;;;;;5180316;28;20454;-47
2022/06/20 02:19:32;;;;;;;11.73;6.27;;;13.40;99.90;;;;;;5186385;28;20917;-47
2022/06/20 02:22:06;;;;;;;5.63;5.13;;;13.50;99.90;;;;;;5177319;28;20798;-48
2022/06/20 02:24:42;;;;;;;15.50;6.43;;;13.60;99.90;;;;;;5178665;28;20463;-48
2022/06/20 02:27:26;;;;;;;14.20;6.13;;;13.60;99.90;;;;;;5180379;28;20488;-47
2022/06/20 02:29:58;;;;;;;13.30;7.20;;;13.50;99.90;;;;;;5186725;28;20501;-46
2022/06/20 02:32:42;;;;;;;20.27;7.20;;;13.40;99.90;;;;;;5185753;28;20518;-47
2022/06/20 02:35:19;;;;;;;13.30;7.00;;;13.40;99.90;;;;;;5185321;28;20434;-47
2022/06/20 02:37:49;;;;;;;15.33;7.07;;;13.30;99.90;;;;;;5185386;28;20438;-47
2022/06/20 02:40:23;;;;;;;24.57;7.90;;;13.20;99.90;;;;;;5190318;28;20444;-48
2022/06/20 02:43:09;;;;;;;16.90;7.57;;;13.20;99.90;;;;;;5194572;28;20189;-49
2022/06/20 02:45:40;;;;;;;16.33;6.70;;;13.20;99.90;;;;;;5184038;28;20476;-48
2022/06/20 02:48:13;;;;;;;14.50;7.40;;;13.20;99.90;;;;;;5186352;28;20431;-46
2022/06/20 02:50:56;;;;;;;9.93;6.17;;;13.20;99.90;;;;;;5200955;28;20434;-49
2022/06/20 02:53:39;;;;;;;11.17;6.20;;;13.10;99.90;;;;;;5199334;28;20955;-48
2022/06/20 02:56:15;;;;;;;19.43;6.53;;;13.10;99.90;;;;;;5198092;28;20464;-49
2022/06/20 02:58:52;;;;;;;7.73;4.80;;;13.20;99.90;;;;;;5186197;28;20938;-47
2022/06/20 03:01:38;;;;;;;7.87;4.77;;;13.20;99.90;;;;;;5199912;28;20790;-48
2022/06/20 03:04:10;;;;;;;12.40;5.40;;;13.20;99.90;;;;;;5185562;28;20431;-48
2022/06/20 03:06:47;;;;;;;11.33;5.33;;;13.30;99.90;;;;;;5186894;28;20505;-47
2022/06/20 03:09:23;;;;;;;11.37;5.10;;;13.30;99.90;;;;;;5186613;28;20434;-47
2022/06/20 03:11:55;;;;;;;11.97;4.97;;;13.40;99.90;;;;;;5178060;28;20450;-48
2022/06/20 03:14:33;;;;;;;8.90;4.77;;;13.40;99.90;;;;;;5185352;28;20940;-48
2022/06/20 03:17:06;;;;;;;4.80;4.40;;;13.70;99.90;;;;;;5185473;28;20457;-49
2022/06/20 03:19:41;;;;;;;9.37;4.97;;;13.80;99.90;;;;;;5188579;28;20816;-48
2022/06/20 03:22:16;;;;;;;10.43;4.77;;;13.80;99.90;;;;;;5188283;28;20875;-47
2022/06/20 03:24:49;;;;;;;10.30;5.67;;;13.90;99.90;;;;;;5184569;28;21072;-48
2022/06/20 03:27:33;;;;;;;12.43;5.23;;;14.00;99.90;;;;;;5186796;28;20482;-47
2022/06/20 03:30:22;;;;;;;9.30;4.27;;;14.00;99.90;;;;;;5180275;28;20451;-47
2022/06/20 03:32:52;;;;;;;7.10;4.03;;;14.10;99.90;;;;;;5207111;28;20439;-48
2022/06/20 03:35:23;;;;;;;6.07;3.67;;;14.10;99.90;;;;;;5190733;28;20509;-47
2022/06/20 03:37:54;;;;;;;5.47;3.30;;;14.20;99.90;;;;;;5191292;28;20188;-48
2022/06/20 03:40:25;;;;;;;6.23;3.67;;;14.20;99.90;;;;;;5190252;28;20993;-47
2022/06/20 03:42:58;;;;;;;12.60;3.70;;;14.30;99.90;;;;;;5195043;28;20192;-48
2022/06/20 03:45:32;;;;;;;8.00;3.80;;;14.30;99.90;;;;;;5190514;28;20991;-47
2022/06/20 03:48:10;;;;;;;8.30;3.03;;;14.30;99.90;;;;;;5189865;28;20598;-48
2022/06/20 03:51:08;;;;;;;2.53;2.33;;;14.40;99.90;;;;;;5204375;28;20530;-47
2022/06/20 03:53:55;;;;;;;6.27;2.83;;;14.40;99.90;;;;;;5181446;28;20800;-48
2022/06/20 03:56:37;;;;;;;4.80;2.90;;;14.40;99.90;;;;;;5183355;28;20454;-48
2022/06/20 03:59:16;;;;;;;6.50;3.57;;;14.50;99.90;;;;;;5206298;28;20451;-47
2022/06/20 04:01:53;;;;;;;9.20;3.10;;;14.50;99.90;;;;;;5191745;28;20432;-48
2022/06/20 04:04:33;;;;;;;5.67;2.60;;;14.50;99.90;;;;;;5188602;28;20799;-47
2022/06/20 04:07:09;;;;;;;4.60;3.33;;;14.60;99.90;;;;;;5202355;28;20794;-47
2022/06/20 04:13:01;;;;;;;9.60;3.67;;;14.80;99.90;;;;;;5183592;28;20475;-49
2022/06/20 04:15:46;;;;;;;10.40;2.70;;;14.90;99.90;;;;;;5186057;28;20978;-46
2022/06/20 04:18:48;;;;;;;4.90;2.73;;;15.10;99.90;;;;;;5206007;28;20439;-46
2022/06/20 04:21:33;;;;;;;7.87;3.30;;;15.30;99.90;;;;;;5189247;28;20438;-47
2022/06/20 04:24:15;;;;;;;5.00;2.87;;;15.60;99.90;;;;;;5207068;28;20470;-48
2022/06/20 04:27:10;;;;;;;5.93;2.70;;;15.70;99.90;;;;;;5186032;28;20466;-49
2022/06/20 04:29:46;;;;;;;7.53;2.63;;;15.60;99.90;;;;;;5191356;28;20431;-48
2022/06/20 04:32:29;;;;;;;6.40;2.77;;;15.50;99.90;;;;;;5191390;28;20529;-46
2022/06/20 04:35:11;;;;;;;8.90;3.27;;;15.50;99.90;;;;;;5190365;28;20443;-48
2022/06/20 04:38:12;;;;;;;10.70;3.03;;;15.70;99.90;;;;;;5185436;28;20534;-47
2022/06/20 04:41:08;;;;;;;5.27;2.77;;;16.00;99.90;;;;;;5175612;28;20959;-47
2022/06/20 04:43:55;;;;;;;3.13;2.40;;;16.20;99.90;;;;;;5180733;28;20487;-49
2022/06/20 04:46:31;;;;;;;15.80;2.83;;;16.20;99.90;;;;;;5200712;28;20499;-49
2022/06/20 04:49:02;;;;;;;4.37;3.03;;;16.30;99.90;;;;;;5180335;28;20479;-51
2022/06/20 04:51:37;;;;;;;7.80;3.50;;;16.20;99.90;;;;;;5185763;28;20470;-50
2022/06/20 04:54:14;;;;;;;3.47;3.23;;;15.90;99.90;;;;;;5203931;28;20255;-48
2022/06/20 04:56:47;;;;;;;3.17;2.93;;;15.70;99.90;;;;;;5187362;28;20510;-48
2022/06/20 04:59:22;;;;;;;4.43;3.63;;;15.40;99.90;;;;;;5191269;28;20439;-49
2022/06/20 05:01:57;;;;;;;5.37;4.50;;;15.20;99.90;;;;;;5175598;28;20536;-49
2022/06/20 05:04:33;;;;;;;12.47;4.93;;;15.00;99.90;;;;;;5183021;28;20435;-49
2022/06/20 05:07:13;;;;;;;5.40;4.00;;;15.00;99.90;;;;;;5193310;28;20455;-51
2022/06/20 05:10:08;;;;;;;7.90;4.70;;;14.80;99.90;;;;;;5179510;28;20443;-50
2022/06/20 05:12:49;;;;;;;11.33;5.67;;;14.70;99.90;;;;;;5187329;28;20501;-51
2022/06/20 05:15:42;;;;;;;4.93;4.10;;;14.60;99.90;;;;;;5174924;28;21002;-51
2022/06/20 05:18:34;;;;;;;12.80;5.30;;;14.50;99.90;;;;;;5181579;28;20716;-50
2022/06/20 05:21:19;;;;;;;10.10;4.93;;;14.40;99.90;;;;;;5195165;28;20435;-53
2022/06/20 05:23:55;;;;;;;7.83;4.50;;;14.30;99.90;;;;;;5177062;28;20494;-50
2022/06/20 05:26:32;;;;;;;14.00;6.87;;;14.20;99.90;;;;;;5170678;28;20548;-50
2022/06/20 05:29:07;;;;;;;14.53;6.57;;;14.20;99.90;;;;;;5181351;28;20443;-50
2022/06/20 05:31:42;;;;;;;16.57;6.30;;;14.20;99.90;;;;;;5177849;28;20473;-50
2022/06/20 05:34:40;;;;;;;9.03;6.70;;;14.20;99.90;;;;;;5184985;28;20974;-52
2022/06/20 05:37:56;;;;;;;20.20;10.20;;;14.20;99.90;;;;;;5184254;28;20447;-51
2022/06/20 05:40:40;;;;;;;18.77;8.23;;;14.20;99.90;;;;;;5176052;28;20444;-49
2022/06/20 05:43:17;;;;;;;11.70;7.33;;;14.10;99.90;;;;;;5177071;28;20481;-51
2022/06/20 05:45:54;;;;;;;14.73;6.90;;;14.00;99.90;;;;;;5176172;28;20491;-51
2022/06/20 05:48:30;;;;;;;20.20;7.67;;;13.90;99.90;;;;;;5194895;28;20477;-50
2022/06/20 05:51:04;;;;;;;11.80;6.90;;;13.90;99.90;;;;;;5177615;28;20438;-50
2022/06/20 05:53:40;;;;;;;25.90;8.33;;;13.80;99.90;;;;;;5178147;28;20435;-51
2022/06/20 05:56:24;;;;;;;18.63;7.77;;;13.70;99.90;;;;;;5176213;28;20474;-51
2022/06/20 05:58:55;;;;;;;13.03;6.93;;;13.70;99.90;;;;;;5195470;28;20443;-51
2022/06/20 06:01:34;;;;;;;27.43;9.50;;;13.70;99.90;;;;;;5183717;28;20757;-50
2022/06/20 06:04:23;;;;;;;25.50;10.30;;;13.80;99.90;;;;;;5197073;28;20443;-50
2022/06/20 06:06:57;;;;;;;13.00;8.07;;;13.80;99.90;;;;;;5184661;28;20800;-50
2022/06/20 06:09:58;;;;;;;10.13;7.73;;;13.80;99.90;;;;;;5175317;28;20522;-50
2022/06/20 06:12:44;;;;;;;36.40;13.50;;;13.80;99.90;;;;;;5181458;28;20805;-51
2022/06/20 06:15:27;;;;;;;23.23;12.37;;;13.80;99.90;;;;;;5182896;28;20928;-52
2022/06/20 06:18:03;;;;;;;32.23;14.67;;;13.60;99.90;;;;;;5174960;28;22073;-55
2022/06/20 06:20:35;;;;;;;38.93;20.03;;;13.40;99.90;;;;;;5180357;28;20442;-50
2022/06/20 06:23:08;;;;;;;26.20;16.80;;;13.40;99.90;;;;;;5178842;28;20439;-52
2022/06/20 06:25:43;;;;;;;39.77;21.27;;;13.20;99.90;;;;;;5192927;22;20479;-47
2022/06/20 06:28:16;;;;;;;40.27;22.90;;;13.20;99.90;;;;;;5164409;28;20927;-48
2022/06/20 06:31:09;;;;;;;36.53;22.03;;;13.20;99.90;;;;;;5160673;28;20470;-49
2022/06/20 06:33:47;;;;;;;48.57;23.43;;;13.30;99.90;;;;;;5157786;28;20448;-48
2022/06/20 06:36:38;;;;;;;43.87;21.00;;;13.20;99.90;;;;;;5152758;28;20816;-48
2022/06/20 06:39:25;;;;;;;54.40;22.63;;;13.20;99.90;;;;;;5156076;28;20531;-49
2022/06/20 06:41:58;;;;;;;48.13;23.90;;;13.30;99.90;;;;;;5169281;28;20444;-48
2022/06/20 06:44:42;;;;;;;41.70;22.50;;;13.40;99.90;;;;;;5152726;28;20582;-47
2022/06/20 06:47:56;;;;;;;23.93;14.03;;;13.60;99.90;;;;;;5155002;28;20456;-49
2022/06/20 06:50:37;;;;;;;18.73;12.67;;;13.80;99.90;;;;;;5144732;28;21016;-48
2022/06/20 06:53:23;;;;;;;40.87;17.77;;;14.00;99.90;;;;;;5160319;28;20444;-49
2022/06/20 06:55:59;;;;;;;27.50;14.50;;;14.10;99.90;;;;;;5154845;28;21054;-48
2022/06/20 06:58:38;;;;;;;34.70;18.57;;;14.00;99.90;;;;;;5160645;28;20439;-49
2022/06/20 07:01:11;;;;;;;30.97;16.67;;;14.00;99.90;;;;;;5160184;28;20463;-49
2022/06/20 07:03:51;;;;;;;28.43;17.37;;;14.30;99.90;;;;;;5148801;28;20961;-50
2022/06/20 07:06:30;;;;;;;32.37;17.33;;;14.40;99.90;;;;;;5157781;28;20866;-49
2022/06/20 07:09:23;;;;;;;23.07;14.10;;;14.60;99.90;;;;;;5157262;28;20454;-49
2022/06/20 07:12:06;;;;;;;21.83;14.40;;;14.40;99.90;;;;;;5150975;28;20444;-48
2022/06/20 07:14:42;;;;;;;19.93;13.33;;;14.30;99.90;;;;;;5157060;28;20440;-49
2022/06/20 07:17:22;;;;;;;16.43;11.50;;;14.20;99.90;;;;;;5153857;28;20522;-48
2022/06/20 07:19:52;;;;;;;19.73;11.23;;;14.10;99.90;;;;;;5152730;28;20464;-46
2022/06/20 07:22:24;;;;;;;17.33;11.43;;;14.00;99.90;;;;;;5158168;28;20915;-49
2022/06/20 07:24:54;;;;;;;20.03;11.83;;;13.80;99.90;;;;;;5162600;28;20792;-48
2022/06/20 07:27:35;;;;;;;23.30;13.00;;;13.70;99.90;;;;;;5155284;28;20479;-48
2022/06/20 07:30:22;;;;;;;28.40;17.50;;;13.70;99.90;;;;;;5151912;28;20188;-48
2022/06/20 07:33:09;;;;;;;35.37;19.37;;;13.60;99.90;;;;;;5152087;28;20452;-48
2022/06/20 07:35:50;;;;;;;33.47;18.10;;;13.60;99.90;;;;;;5157503;28;20444;-49
2022/06/20 07:38:59;;;;;;;43.00;21.90;;;13.60;99.90;;;;;;5155998;28;20483;-48
2022/06/20 07:41:47;;;;;;;24.50;16.70;;;13.60;99.90;;;;;;5139538;28;20809;-48
2022/06/20 07:44:48;;;;;;;29.80;17.37;;;13.80;99.90;;;;;;5159661;28;20554;-49
2022/06/20 07:47:36;;;;;;;25.93;15.50;;;13.90;99.90;;;;;;5150012;28;20558;-49
2022/06/20 07:50:16;;;;;;;33.20;15.50;;;14.00;99.90;;;;;;5158261;28;20549;-48
2022/06/20 07:53:05;;;;;;;18.90;13.30;;;14.00;99.90;;;;;;5158820;28;20438;-48
2022/06/20 07:55:40;;;;;;;17.43;13.07;;;14.00;99.90;;;;;;5158163;28;20444;-47
2022/06/20 07:58:29;;;;;;;17.43;12.17;;;14.10;99.90;;;;;;5155611;28;20439;-48
2022/06/20 08:01:05;;;;;;;15.27;11.37;;;14.10;99.90;;;;;;5159684;28;20435;-49
2022/06/20 08:03:43;;;;;;;13.20;10.63;;;14.10;99.90;;;;;;5160851;28;20439;-47
2022/06/20 08:06:35;;;;;;;21.33;13.97;;;14.10;99.90;;;;;;5159434;28;21007;-48
2022/06/20 08:09:17;;;;;;;26.33;13.93;;;14.00;99.90;;;;;;5151323;28;20437;-47
2022/06/20 08:11:50;;;;;;;13.33;9.93;;;14.00;99.90;;;;;;5154636;28;20444;-46
2022/06/20 08:14:47;;;;;;;12.50;9.30;;;14.10;99.90;;;;;;5157428;28;20472;-47
2022/06/20 08:17:18;;;;;;;14.30;9.40;;;14.20;99.90;;;;;;5161629;28;20478;-47
2022/06/20 08:19:49;;;;;;;18.67;8.60;;;14.30;99.90;;;;;;5160948;28;20943;-47
2022/06/20 08:22:22;;;;;;;10.97;8.33;;;14.20;99.90;;;;;;5152980;28;20283;-46
2022/06/20 08:24:57;;;;;;;12.57;9.30;;;14.10;99.90;;;;;;5158210;28;20546;-46
2022/06/20 08:27:38;;;;;;;12.80;8.70;;;14.20;99.90;;;;;;5161655;28;20887;-46
2022/06/20 08:30:37;;;;;;;23.70;11.03;;;14.20;99.90;;;;;;5177050;28;20427;-47
2022/06/20 08:33:10;;;;;;;17.67;10.93;;;14.20;99.90;;;;;;5158718;28;20542;-46
2022/06/20 08:35:58;;;;;;;15.03;10.77;;;14.10;99.90;;;;;;5144887;28;20444;-47
2022/06/20 08:38:34;;;;;;;26.03;15.67;;;14.20;99.90;;;;;;5155484;28;20443;-47
2022/06/20 08:41:33;;;;;;;19.80;13.30;;;14.30;99.90;;;;;;5154258;28;20503;-47
2022/06/20 08:44:09;;;;;;;19.07;11.60;;;14.40;99.90;;;;;;5157349;28;20436;-47
2022/06/20 08:47:08;;;;;;;19.37;9.30;;;14.50;99.90;;;;;;5156061;28;20496;-46
2022/06/20 08:49:57;;;;;;;12.13;7.97;;;14.60;99.90;;;;;;5154789;28;20473;-47
2022/06/20 08:52:52;;;;;;;8.80;7.90;;;14.40;99.90;;;;;;5158586;28;20919;-48
2022/06/20 08:55:43;;;;;;;7.77;6.97;;;14.10;99.90;;;;;;5157717;28;20440;-47
2022/06/20 08:58:41;;;;;;;8.40;7.20;;;14.00;99.90;;;;;;5157363;28;20512;-48
2022/06/20 09:01:16;;;;;;;9.90;7.67;;;14.00;99.90;;;;;;5157989;28;20436;-47
2022/06/20 09:04:22;;;;;;;13.77;7.53;;;14.10;99.90;;;;;;5156020;28;20991;-48
2022/06/20 09:07:17;;;;;;;9.57;7.50;;;14.10;99.90;;;;;;5157054;28;20468;-47
2022/06/20 09:10:11;;;;;;;13.97;8.30;;;14.20;99.90;;;;;;5153515;28;20479;-48
2022/06/20 09:12:53;;;;;;;18.00;8.57;;;14.10;99.90;;;;;;5155453;28;20444;-47
2022/06/20 09:15:48;;;;;;;11.07;7.00;;;14.00;99.90;;;;;;5159133;28;20451;-47
2022/06/20 09:18:27;;;;;;;16.73;8.60;;;14.20;99.90;;;;;;5156147;28;20776;-46
2022/06/20 09:21:28;;;;;;;12.13;8.20;;;14.20;99.90;;;;;;5154705;28;20440;-47
2022/06/20 09:24:25;;;;;;;13.83;9.03;;;14.30;99.90;;;;;;5156125;28;20461;-48
2022/06/20 09:27:08;;;;;;;10.83;7.47;;;14.20;99.90;;;;;;5148807;28;21117;-47
2022/06/20 09:29:53;;;;;;;16.10;9.67;;;14.20;99.90;;;;;;5160464;28;20436;-47
2022/06/20 09:32:42;;;;;;;19.80;8.40;;;14.10;99.90;;;;;;5158881;28;20462;-48
2022/06/20 09:35:18;;;;;;;9.20;7.17;;;14.00;99.90;;;;;;5158472;28;20519;-47
2022/06/20 09:38:27;;;;;;;15.70;8.20;;;14.00;99.90;;;;;;5156976;28;20543;-48
2022/06/20 09:41:16;;;;;;;13.50;9.10;;;14.00;99.90;;;;;;5174387;28;20507;-46
2022/06/20 09:43:51;;;;;;;15.10;9.70;;;14.00;99.90;;;;;;5155319;28;20493;-47
2022/06/20 09:46:46;;;;;;;14.27;8.90;;;14.00;99.90;;;;;;5156819;28;20985;-48
2022/06/20 09:49:47;;;;;;;15.17;10.00;;;14.10;99.90;;;;;;5157724;28;20518;-48
2022/06/20 09:52:44;;;;;;;9.97;6.50;;;14.20;99.90;;;;;;5169949;28;20450;-48
2022/06/20 09:55:46;;;;;;;8.87;6.23;;;14.30;99.90;;;;;;5159167;28;20451;-48
2022/06/20 09:58:40;;;;;;;11.60;6.50;;;14.30;99.90;;;;;;5160651;28;20439;-47
2022/06/20 10:01:37;;;;;;;7.70;7.10;;;14.40;99.90;;;;;;5155094;28;20440;-48
2022/06/20 10:04:24;;;;;;;14.73;7.97;;;14.50;99.90;;;;;;5159318;28;20803;-47
2022/06/20 10:07:29;;;;;;;14.47;8.93;;;14.50;99.90;;;;;;5154150;28;20468;-48
2022/06/20 10:10:08;;;;;;;11.03;7.73;;;14.40;99.90;;;;;;5157640;28;20428;-47
2022/06/20 10:13:07;;;;;;;10.37;6.73;;;14.30;99.90;;;;;;5160965;28;20432;-47
2022/06/20 10:15:51;;;;;;;12.67;8.00;;;14.50;99.90;;;;;;5157107;28;20486;-47
2022/06/20 10:18:50;;;;;;;8.70;6.83;;;14.50;99.90;;;;;;5159241;28;20916;-47
2022/06/20 10:21:45;;;;;;;9.27;7.27;;;14.60;99.90;;;;;;5148429;28;20451;-47
2022/06/20 10:24:42;;;;;;;6.13;5.30;;;14.70;99.90;;;;;;5156113;28;20446;-47
2022/06/20 10:27:38;;;;;;;6.80;6.10;;;14.70;99.90;;;;;;5158218;28;20483;-48
2022/06/20 10:30:19;;;;;;;9.77;6.70;;;14.70;99.90;;;;;;5154213;28;20451;-46
2022/06/20 10:32:55;;;;;;;6.63;6.03;;;14.70;99.90;;;;;;5154859;28;20432;-47
2022/06/20 10:35:29;;;;;;;9.37;8.30;;;14.60;99.90;;;;;;5151573;28;20445;-46
2022/06/20 10:38:14;;;;;;;10.50;8.23;;;14.60;99.90;;;;;;5159176;28;20511;-47
2022/06/20 10:41:12;;;;;;;15.40;9.53;;;14.70;99.90;;;;;;5166888;28;20905;-47
2022/06/20 10:44:08;;;;;;;12.83;8.20;;;14.80;99.90;;;;;;5162612;28;20440;-47
2022/06/20 10:46:42;;;;;;;11.33;7.17;;;14.90;99.90;;;;;;5129973;28;20893;-47
2022/06/20 10:49:20;;;;;;;13.37;7.27;;;14.90;99.90;;;;;;5157876;28;20445;-47
2022/06/20 10:52:28;;;;;;;8.63;5.87;;;14.80;99.90;;;;;;5161233;28;20447;-47
2022/06/20 10:55:24;;;;;;;6.07;5.40;;;14.80;99.90;;;;;;5148035;28;20432;-47
2022/06/20 10:58:13;;;;;;;8.70;5.43;;;14.80;99.90;;;;;;5161627;28;20448;-46
2022/06/20 11:00:55;;;;;;;8.93;5.10;;;14.80;99.90;;;;;;5156438;28;20464;-47
2022/06/20 11:03:47;;;;;;;7.17;4.70;;;14.90;99.90;;;;;;5160914;28;20457;-47
2022/06/20 11:06:42;;;;;;;10.90;5.10;;;14.80;99.90;;;;;;5159851;28;20480;-47
2022/06/20 11:09:46;;;;;;;4.40;4.00;;;14.60;99.90;;;;;;5161103;28;20428;-47
2022/06/20 11:12:44;;;;;;;4.20;3.90;;;14.60;99.90;;;;;;5155110;28;20881;-46
2022/06/20 11:15:31;;;;;;;8.37;4.67;;;14.60;99.90;;;;;;5148628;28;20450;-48
2022/06/20 11:18:54;;;;;;;10.30;5.87;;;14.60;99.90;;;;;;5146381;28;20448;-47
2022/06/20 11:21:47;;;;;;;7.37;5.93;;;14.60;99.90;;;;;;5151397;28;20472;-46
2022/06/20 11:24:39;;;;;;;7.67;5.63;;;14.60;99.90;;;;;;5154429;28;20467;-47
2022/06/20 11:27:34;;;;;;;10.70;7.73;;;14.70;99.90;;;;;;5150032;28;20580;-47
2022/06/20 11:30:37;;;;;;;8.93;5.87;;;14.70;99.90;;;;;;5156437;28;20432;-47
2022/06/20 11:34:02;;;;;;;5.53;4.90;;;14.70;99.90;;;;;;5156131;28;20466;-47
2022/06/20 11:36:50;;;;;;;4.90;4.57;;;14.70;99.90;;;;;;5153183;28;20969;-47
2022/06/20 11:39:45;;;;;;;9.70;4.70;;;14.60;99.90;;;;;;5154174;28;20470;-48
2022/06/20 11:42:52;;;;;;;5.33;3.90;;;14.70;99.90;;;;;;5168744;28;20594;-47
2022/06/20 11:45:44;;;;;;;4.50;3.40;;;14.80;99.90;;;;;;5158111;28;20455;-47
2022/06/20 11:48:24;;;;;;;5.33;3.73;;;14.90;99.90;;;;;;5154544;28;20433;-47
2022/06/20 11:51:05;;;;;;;3.57;3.37;;;15.00;99.90;;;;;;5153784;28;20507;-47
2022/06/20 11:53:50;;;;;;;3.23;3.00;;;15.10;99.90;;;;;;5157186;28;20950;-48
2022/06/20 11:57:08;;;;;;;4.73;3.33;;;15.10;99.90;;;;;;5154042;28;20586;-47
2022/06/20 12:00:19;;;;;;;2.10;2.00;;;15.10;99.90;;;;;;5117843;28;20524;-46
2022/06/20 12:03:11;;;;;;;2.23;2.13;;;15.00;99.90;;;;;;5099357;28;20442;-47
2022/06/20 12:06:00;;;;;;;2.17;2.10;;;15.10;99.90;;;;;;5172508;28;20503;-47
2022/06/20 12:08:55;;;;;;;1.93;1.73;;;15.10;99.90;;;;;;5152648;28;20519;-46
2022/06/20 12:12:03;;;;;;;2.17;1.97;;;15.10;99.90;;;;;;5178282;28;20540;-47
2022/06/20 12:14:56;;;;;;;2.83;2.30;;;15.30;99.90;;;;;;5173991;28;20436;-47
2022/06/20 12:17:42;;;;;;;1.40;1.40;;;15.40;99.90;;;;;;5156000;28;20455;-48
2022/06/20 12:23:18;;;;;;;2.23;2.10;;;15.60;99.90;;;;;;5156997;28;20540;-46
2022/06/20 12:26:20;;;;;;;1.90;1.80;;;15.70;99.90;;;;;;5170198;22;20473;-49
2022/06/20 12:28:53;;;;;;;3.13;2.83;;;15.90;99.90;;;;;;5154099;28;20821;-50
2022/06/20 12:31:30;;;;;;;2.80;2.53;;;15.90;99.90;;;;;;5156113;28;20432;-50
2022/06/20 12:34:16;;;;;;;1.97;1.87;;;16.10;99.90;;;;;;5160267;28;20455;-51
2022/06/20 12:36:51;;;;;;;6.53;2.43;;;16.20;99.90;;;;;;5147943;28;20817;-51
2022/06/20 12:39:35;;;;;;;2.10;1.97;;;16.20;99.90;;;;;;5134008;28;20436;-53
2022/06/20 12:42:23;;;;;;;23.63;9.70;;;16.30;99.90;;;;;;5143344;28;20523;-49
2022/06/20 12:45:15;;;;;;;6.60;5.10;;;16.30;99.90;;;;;;5142120;28;20494;-51
2022/06/20 12:48:00;;;;;;;9.30;5.60;;;16.30;99.90;;;;;;5146758;28;21241;-49
2022/06/20 12:50:51;;;;;;;1.90;1.80;;;16.40;99.90;;;;;;5146180;28;20448;-50
2022/06/20 12:53:56;;;;;;;6.90;1.70;;;16.60;99.90;;;;;;5145107;28;20496;-52
2022/06/20 12:56:44;;;;;;;3.80;1.20;;;16.60;99.90;;;;;;5136532;28;20456;-51
2022/06/20 12:59:47;;;;;;;1.70;1.60;;;16.70;99.90;;;;;;5141268;28;20528;-49
2022/06/20 13:02:24;;;;;;;1.53;1.53;;;16.60;99.90;;;;;;5136667;28;20527;-50
2022/06/20 13:05:00;;;;;;;2.20;1.30;;;16.70;99.90;;;;;;5141595;28;20480;-51
2022/06/20 13:07:52;;;;;;;2.67;1.77;;;16.80;99.90;;;;;;5136460;28;20458;-52
2022/06/20 13:11:00;;;;;;;2.40;1.57;;;17.00;99.90;;;;;;5136975;28;20763;-50
2022/06/20 13:13:40;;;;;;;2.13;2.03;;;17.20;99.90;;;;;;5137368;28;20457;-49
2022/06/20 13:16:47;;;;;;;2.27;1.30;;;17.50;99.90;;;;;;5138437;28;20818;-50
2022/06/20 13:19:21;;;;;;;1.50;1.40;;;17.50;99.90;;;;;;5141807;28;20460;-52
2022/06/20 13:22:16;;;;;;;2.20;2.10;;;17.50;99.90;;;;;;5137672;28;20512;-50
2022/06/20 13:25:25;;;;;;;2.23;1.67;;;17.50;99.90;;;;;;5138784;28;20476;-50
2022/06/20 13:28:12;;;;;;;4.70;1.87;;;17.20;99.90;;;;;;5122749;28;20476;-50
2022/06/20 13:31:09;;;;;;;4.30;1.97;;;17.40;99.90;;;;;;5140454;28;20493;-51
2022/06/20 13:34:04;;;;;;;3.90;1.43;;;17.50;99.90;;;;;;5135938;28;20492;-52
2022/06/20 13:36:43;;;;;;;1.50;1.40;;;17.70;99.90;;;;;;5142754;28;20477;-49
2022/06/20 13:39:26;;;;;;;1.73;1.63;;;17.80;99.90;;;;;;5137327;28;20957;-48
2022/06/20 13:42:25;;;;;;;2.60;1.60;;;17.80;99.90;;;;;;5142238;28;21038;-52
2022/06/20 13:45:10;;;;;;;1.73;1.37;;;18.00;99.90;;;;;;5140285;28;20446;-49
2022/06/20 13:48:10;;;;;;;1.43;1.10;;;18.10;99.90;;;;;;5139722;28;20483;-50
2022/06/20 13:50:52;;;;;;;1.70;1.60;;;18.30;99.90;;;;;;5137615;28;20922;-48
2022/06/20 13:53:33;;;;;;;4.13;1.53;;;18.40;99.90;;;;;;5137538;28;20503;-49
2022/06/20 13:56:28;;;;;;;1.20;1.10;;;18.50;99.90;;;;;;5136529;28;21012;-49
2022/06/20 13:59:25;;;;;;;1.33;1.30;;;18.50;99.90;;;;;;5140332;28;20477;-50
2022/06/20 14:02:17;;;;;;;1.87;1.77;;;18.50;99.90;;;;;;5141885;28;20498;-49
2022/06/20 14:04:49;;;;;;;1.93;1.87;;;18.40;99.90;;;;;;5162873;28;20460;-49
2022/06/20 14:07:28;;;;;;;2.57;2.30;;;18.30;99.90;;;;;;5134221;28;20477;-49
2022/06/20 14:10:00;;;;;;;6.20;2.83;;;18.30;99.90;;;;;;5131328;28;20523;-49
2022/06/20 14:12:34;;;;;;;2.47;2.27;;;18.10;99.90;;;;;;5137525;28;20953;-49